sensor_id;sensor_type;location;lat;lon;timestamp;pressure;altitude;pressure_sealevel;temperature;humidity
62789;BME280;66401;42.016;21.454;2023-02-02T00:01:40;98584.16;;;3.26;63.98
62789;BME280;66401;42.016;21.454;2023-02-02T00:04:07;98567.78;;;3.07;64.25
62789;BME280;66401;42.016;21.454;2023-02-02T00:06:33;98608.56;;;3.22;65.27
62789;BME280;66401;42.016;21.454;2023-02-02T00:09:00;98590.94;;;3.07;65.30
62789;BME280;66401;42.016;21.454;2023-02-02T00:11:26;98595.03;;;3.00;64.56
62789;BME280;66401;42.016;21.454;2023-02-02T00:13:52;98605.56;;;3.16;63.70
62789;BME280;66401;42.016;21.454;2023-02-02T00:18:58;98564.16;;;2.91;63.93
62789;BME280;66401;42.016;21.454;2023-02-02T00:21:23;98578.66;;;2.92;64.18
62789;BME280;66401;42.016;21.454;2023-02-02T00:23:49;98601.38;;;2.96;64.82
62789;BME280;66401;42.016;21.454;2023-02-02T00:26:15;98589.19;;;2.79;65.89
62789;BME280;66401;42.016;21.454;2023-02-02T00:28:41;98585.41;;;2.64;63.66
62789;BME280;66401;42.016;21.454;2023-02-02T00:31:06;98591.88;;;2.58;63.51
62789;BME280;66401;42.016;21.454;2023-02-02T00:33:32;98587.28;;;2.52;63.35
62789;BME280;66401;42.016;21.454;2023-02-02T00:35:57;98584.97;;;2.58;63.90
62789;BME280;66401;42.016;21.454;2023-02-02T00:38:25;98591.50;;;2.63;62.48
62789;BME280;66401;42.016;21.454;2023-02-02T00:40:50;98596.88;;;2.59;63.49
62789;BME280;66401;42.016;21.454;2023-02-02T00:43:16;98599.31;;;2.51;63.75
62789;BME280;66401;42.016;21.454;2023-02-02T00:45:41;98591.97;;;2.37;64.03
62789;BME280;66401;42.016;21.454;2023-02-02T00:48:07;98589.69;;;1.94;66.18
62789;BME280;66401;42.016;21.454;2023-02-02T00:50:35;98585.75;;;1.99;64.84
62789;BME280;66401;42.016;21.454;2023-02-02T00:53:01;98599.47;;;2.10;65.38
62789;BME280;66401;42.016;21.454;2023-02-02T00:55:26;98596.78;;;2.21;64.87
62789;BME280;66401;42.016;21.454;2023-02-02T00:57:52;98577.25;;;1.99;64.93
62789;BME280;66401;42.016;21.454;2023-02-02T01:00:22;98574.66;;;1.89;65.49
62789;BME280;66401;42.016;21.454;2023-02-02T01:02:52;98589.19;;;2.10;66.75
62789;BME280;66401;42.016;21.454;2023-02-02T01:05:19;98597.06;;;2.18;64.95
62789;BME280;66401;42.016;21.454;2023-02-02T01:07:45;98558.97;;;1.92;65.78
62789;BME280;66401;42.016;21.454;2023-02-02T01:10:14;98579.34;;;2.15;64.85
62789;BME280;66401;42.016;21.454;2023-02-02T01:12:41;98585.94;;;2.08;66.23
62789;BME280;66401;42.016;21.454;2023-02-02T01:15:07;98589.72;;;2.04;66.52
62789;BME280;66401;42.016;21.454;2023-02-02T01:17:33;98570.94;;;1.82;67.31
62789;BME280;66401;42.016;21.454;2023-02-02T01:19:59;98587.03;;;1.75;67.79
62789;BME280;66401;42.016;21.454;2023-02-02T01:22:24;98590.47;;;1.85;66.82
62789;BME280;66401;42.016;21.454;2023-02-02T01:24:50;98584.25;;;1.87;66.53
62789;BME280;66401;42.016;21.454;2023-02-02T01:27:16;98579.06;;;1.78;66.75
62789;BME280;66401;42.016;21.454;2023-02-02T01:29:42;98567.97;;;1.77;66.50
62789;BME280;66401;42.016;21.454;2023-02-02T01:32:07;98548.97;;;1.59;68.04
62789;BME280;66401;42.016;21.454;2023-02-02T01:34:33;98561.53;;;1.92;67.47
62789;BME280;66401;42.016;21.454;2023-02-02T01:36:58;98561.53;;;1.92;66.52
62789;BME280;66401;42.016;21.454;2023-02-02T01:39:26;98556.16;;;1.95;65.97
62789;BME280;66401;42.016;21.454;2023-02-02T01:41:52;98564.28;;;2.00;66.64
62789;BME280;66401;42.016;21.454;2023-02-02T01:47:46;98551.28;;;1.62;67.86
62789;BME280;66401;42.016;21.454;2023-02-02T01:50:14;98560.88;;;1.60;67.75
62789;BME280;66401;42.016;21.454;2023-02-02T01:52:42;98556.53;;;1.60;67.61
62789;BME280;66401;42.016;21.454;2023-02-02T01:55:12;98554.19;;;1.78;67.88
62789;BME280;66401;42.016;21.454;2023-02-02T01:57:43;98547.94;;;1.71;67.13
62789;BME280;66401;42.016;21.454;2023-02-02T02:00:12;98542.22;;;1.58;66.36
62789;BME280;66401;42.016;21.454;2023-02-02T02:02:39;98556.66;;;1.59;66.90
62789;BME280;66401;42.016;21.454;2023-02-02T02:05:06;98551.75;;;1.46;68.16
62789;BME280;66401;42.016;21.454;2023-02-02T02:07:33;98533.91;;;1.24;68.06
62789;BME280;66401;42.016;21.454;2023-02-02T02:09:59;98527.97;;;1.23;69.21
62789;BME280;66401;42.016;21.454;2023-02-02T02:12:25;98540.16;;;1.31;69.05
62789;BME280;66401;42.016;21.454;2023-02-02T02:14:50;98536.22;;;1.48;69.09
62789;BME280;66401;42.016;21.454;2023-02-02T02:18:07;98526.78;;;1.27;68.89
62789;BME280;66401;42.016;21.454;2023-02-02T02:20:59;98553.28;;;1.28;69.24
62789;BME280;66401;42.016;21.454;2023-02-02T02:26:55;98544.81;;;1.37;69.39
62789;BME280;66401;42.016;21.454;2023-02-02T02:29:58;98544.81;;;1.37;69.97
62789;BME280;66401;42.016;21.454;2023-02-02T02:32:33;98538.97;;;1.56;69.71
62789;BME280;66401;42.016;21.454;2023-02-02T02:35:32;98532.25;;;1.43;68.77
62789;BME280;66401;42.016;21.454;2023-02-02T02:40:43;98520.00;;;1.47;69.26
62789;BME280;66401;42.016;21.454;2023-02-02T02:43:19;98513.81;;;1.50;68.22
62789;BME280;66401;42.016;21.454;2023-02-02T02:45:47;98527.56;;;1.49;68.89
62789;BME280;66401;42.016;21.454;2023-02-02T02:48:13;98528.38;;;1.49;69.35
62789;BME280;66401;42.016;21.454;2023-02-02T02:50:38;98526.72;;;1.38;68.83
62789;BME280;66401;42.016;21.454;2023-02-02T02:53:07;98534.78;;;1.34;69.54
62789;BME280;66401;42.016;21.454;2023-02-02T02:55:45;98537.47;;;1.32;70.27
62789;BME280;66401;42.016;21.454;2023-02-02T02:58:20;98538.75;;;1.17;70.65
62789;BME280;66401;42.016;21.454;2023-02-02T03:03:45;98536.13;;;1.28;69.92
62789;BME280;66401;42.016;21.454;2023-02-02T03:06:23;98541.00;;;1.10;70.37
62789;BME280;66401;42.016;21.454;2023-02-02T03:09:02;98547.88;;;0.89;71.38
62789;BME280;66401;42.016;21.454;2023-02-02T03:11:29;98550.19;;;0.92;71.27
62789;BME280;66401;42.016;21.454;2023-02-02T03:13:55;98551.69;;;0.95;70.90
62789;BME280;66401;42.016;21.454;2023-02-02T03:16:21;98544.25;;;0.92;70.83
62789;BME280;66401;42.016;21.454;2023-02-02T03:18:46;98548.56;;;0.91;69.83
62789;BME280;66401;42.016;21.454;2023-02-02T03:21:12;98549.44;;;0.80;71.40
62789;BME280;66401;42.016;21.454;2023-02-02T03:23:37;98537.81;;;0.65;72.48
62789;BME280;66401;42.016;21.454;2023-02-02T03:26:03;98546.00;;;0.59;71.94
62789;BME280;66401;42.016;21.454;2023-02-02T03:28:29;98547.81;;;0.79;71.65
62789;BME280;66401;42.016;21.454;2023-02-02T03:30:57;98544.78;;;0.74;71.10
62789;BME280;66401;42.016;21.454;2023-02-02T03:33:25;98545.88;;;0.93;71.10
62789;BME280;66401;42.016;21.454;2023-02-02T03:35:51;98527.03;;;0.82;70.63
62789;BME280;66401;42.016;21.454;2023-02-02T03:38:17;98527.28;;;0.79;71.63
62789;BME280;66401;42.016;21.454;2023-02-02T03:40:42;98536.81;;;0.89;70.75
62789;BME280;66401;42.016;21.454;2023-02-02T03:43:08;98525.75;;;0.88;70.62
62789;BME280;66401;42.016;21.454;2023-02-02T03:45:34;98536.09;;;0.86;70.58
62789;BME280;66401;42.016;21.454;2023-02-02T03:48:02;98544.72;;;0.85;70.85
62789;BME280;66401;42.016;21.454;2023-02-02T03:50:28;98539.16;;;0.80;70.99
62789;BME280;66401;42.016;21.454;2023-02-02T03:52:53;98523.59;;;0.72;70.41
62789;BME280;66401;42.016;21.454;2023-02-02T03:55:20;98533.97;;;0.92;71.29
62789;BME280;66401;42.016;21.454;2023-02-02T03:57:45;98531.59;;;0.79;70.63
62789;BME280;66401;42.016;21.454;2023-02-02T04:00:11;98546.19;;;0.67;71.66
62789;BME280;66401;42.016;21.454;2023-02-02T04:02:37;98537.91;;;0.75;70.86
62789;BME280;66401;42.016;21.454;2023-02-02T04:05:02;98546.19;;;0.67;69.88
62789;BME280;66401;42.016;21.454;2023-02-02T04:07:28;98545.94;;;0.49;70.57
62789;BME280;66401;42.016;21.454;2023-02-02T04:09:54;98553.44;;;0.62;71.06
62789;BME280;66401;42.016;21.454;2023-02-02T04:12:19;98555.88;;;0.64;70.58
62789;BME280;66401;42.016;21.454;2023-02-02T04:14:45;98545.72;;;0.41;71.24
62789;BME280;66401;42.016;21.454;2023-02-02T04:17:10;98542.69;;;0.36;72.11
62789;BME280;66401;42.016;21.454;2023-02-02T04:19:36;98545.63;;;0.32;72.65
62789;BME280;66401;42.016;21.454;2023-02-02T04:22:01;98531.72;;;-0.09;73.70
62789;BME280;66401;42.016;21.454;2023-02-02T04:24:27;98550.91;;;0.08;73.74
62789;BME280;66401;42.016;21.454;2023-02-02T04:26:52;98537.16;;;-0.03;74.16
62789;BME280;66401;42.016;21.454;2023-02-02T04:29:18;98546.59;;;0.19;73.36
62789;BME280;66401;42.016;21.454;2023-02-02T04:31:43;98548.44;;;0.17;72.79
62789;BME280;66401;42.016;21.454;2023-02-02T04:34:09;98558.69;;;0.17;73.39
62789;BME280;66401;42.016;21.454;2023-02-02T04:36:34;98542.41;;;0.07;72.26
62789;BME280;66401;42.016;21.454;2023-02-02T04:39:00;98566.84;;;0.22;72.52
62789;BME280;66401;42.016;21.454;2023-02-02T04:41:26;98554.25;;;0.31;73.30
62789;BME280;66401;42.016;21.454;2023-02-02T04:43:51;98556.53;;;0.45;72.15
62789;BME280;66401;42.016;21.454;2023-02-02T04:46:17;98562.38;;;0.36;72.29
62789;BME280;66401;42.016;21.454;2023-02-02T04:48:43;98555.66;;;0.23;72.78
62789;BME280;66401;42.016;21.454;2023-02-02T04:51:10;98555.28;;;0.28;72.13
62789;BME280;66401;42.016;21.454;2023-02-02T04:53:36;98557.75;;;0.18;71.38
62789;BME280;66401;42.016;21.454;2023-02-02T04:56:06;98575.91;;;0.26;71.98
62789;BME280;66401;42.016;21.454;2023-02-02T04:58:33;98572.41;;;0.16;73.06
62789;BME280;66401;42.016;21.454;2023-02-02T05:00:59;98590.94;;;0.20;72.83
62789;BME280;66401;42.016;21.454;2023-02-02T05:03:25;98584.28;;;0.17;72.12
62789;BME280;66401;42.016;21.454;2023-02-02T05:05:50;98570.78;;;0.15;71.16
62789;BME280;66401;42.016;21.454;2023-02-02T05:08:15;98579.66;;;0.11;71.74
62789;BME280;66401;42.016;21.454;2023-02-02T05:10:41;98590.13;;;0.31;72.19
62789;BME280;66401;42.016;21.454;2023-02-02T05:13:07;98562.44;;;0.02;72.88
62789;BME280;66401;42.016;21.454;2023-02-02T05:15:33;98581.97;;;0.25;71.98
62789;BME280;66401;42.016;21.454;2023-02-02T05:17:59;98572.41;;;0.16;72.98
62789;BME280;66401;42.016;21.454;2023-02-02T05:20:24;98570.59;;;-0.04;72.83
62789;BME280;66401;42.016;21.454;2023-02-02T05:22:50;98571.28;;;-0.13;72.38
62789;BME280;66401;42.016;21.454;2023-02-02T05:25:16;98601.19;;;0.09;73.29
62789;BME280;66401;42.016;21.454;2023-02-02T05:27:42;98588.06;;;-0.09;73.45
62789;BME280;66401;42.016;21.454;2023-02-02T05:30:10;98593.16;;;0.02;73.08
62789;BME280;66401;42.016;21.454;2023-02-02T05:32:36;98591.53;;;0.01;73.79
62789;BME280;66401;42.016;21.454;2023-02-02T05:35:01;98591.06;;;-0.04;73.45
62789;BME280;66401;42.016;21.454;2023-02-02T05:37:27;98589.69;;;-0.08;73.64
62789;BME280;66401;42.016;21.454;2023-02-02T05:39:52;98600.84;;;-0.09;73.95
62789;BME280;66401;42.016;21.454;2023-02-02T05:42:18;98590.59;;;-0.20;74.28
62789;BME280;66401;42.016;21.454;2023-02-02T05:44:43;98608.75;;;-0.01;73.34
62789;BME280;66401;42.016;21.454;2023-02-02T05:47:09;98608.28;;;0.05;72.45
62789;BME280;66401;42.016;21.454;2023-02-02T05:49:34;98606.06;;;-0.11;73.46
62789;BME280;66401;42.016;21.454;2023-02-02T05:52:00;98607.38;;;-0.16;74.09
62789;BME280;66401;42.016;21.454;2023-02-02T05:54:25;98599.81;;;-0.18;74.12
62789;BME280;66401;42.016;21.454;2023-02-02T05:56:52;98600.75;;;-0.08;74.25
62789;BME280;66401;42.016;21.454;2023-02-02T05:59:19;98605.25;;;-0.11;73.86
62789;BME280;66401;42.016;21.454;2023-02-02T06:01:45;98611.78;;;-0.07;74.02
62789;BME280;66401;42.016;21.454;2023-02-02T06:04:10;98620.63;;;0.11;73.68
62789;BME280;66401;42.016;21.454;2023-02-02T06:06:36;98613.41;;;0.16;72.38
62789;BME280;66401;42.016;21.454;2023-02-02T06:09:04;98624.06;;;0.55;71.14
62789;BME280;66401;42.016;21.454;2023-02-02T06:11:30;98631.53;;;0.47;71.97
62789;BME280;66401;42.016;21.454;2023-02-02T06:13:55;98629.47;;;0.41;71.41
62789;BME280;66401;42.016;21.454;2023-02-02T06:16:21;98640.53;;;0.41;71.41
62789;BME280;66401;42.016;21.454;2023-02-02T06:18:47;98631.31;;;0.27;71.43
62789;BME280;66401;42.016;21.454;2023-02-02T06:21:13;98635.53;;;0.40;71.05
62789;BME280;66401;42.016;21.454;2023-02-02T06:23:39;98637.03;;;0.42;70.46
62789;BME280;66401;42.016;21.454;2023-02-02T06:26:11;98641.13;;;0.11;72.03
62789;BME280;66401;42.016;21.454;2023-02-02T06:28:36;98660.69;;;0.23;71.44
62789;BME280;66401;42.016;21.454;2023-02-02T06:31:07;98651.59;;;0.31;71.79
62789;BME280;66401;42.016;21.454;2023-02-02T06:33:33;98645.16;;;0.47;71.50
62789;BME280;66401;42.016;21.454;2023-02-02T06:35:59;98643.19;;;0.51;70.95
62789;BME280;66401;42.016;21.454;2023-02-02T06:38:25;98642.25;;;0.52;71.21
62789;BME280;66401;42.016;21.454;2023-02-02T06:40:51;98643.16;;;0.62;71.01
62789;BME280;66401;42.016;21.454;2023-02-02T06:43:17;98639.47;;;0.33;73.29
62789;BME280;66401;42.016;21.454;2023-02-02T06:45:43;98646.44;;;0.53;71.98
62789;BME280;66401;42.016;21.454;2023-02-02T06:48:09;98636.38;;;0.72;72.17
62789;BME280;66401;42.016;21.454;2023-02-02T06:50:38;98657.16;;;0.69;72.15
62789;BME280;66401;42.016;21.454;2023-02-02T06:53:04;98631.00;;;0.75;70.58
62789;BME280;66401;42.016;21.454;2023-02-02T06:55:29;98649.00;;;0.96;71.13
62789;BME280;66401;42.016;21.454;2023-02-02T06:57:56;98635.22;;;0.65;71.75
62789;BME280;66401;42.016;21.454;2023-02-02T07:00:22;98627.72;;;0.84;72.09
62789;BME280;66401;42.016;21.454;2023-02-02T07:02:47;98647.38;;;1.06;72.51
62789;BME280;66401;42.016;21.454;2023-02-02T07:05:13;98635.94;;;1.31;70.64
62789;BME280;66401;42.016;21.454;2023-02-02T07:07:38;98645.19;;;1.43;70.23
62789;BME280;66401;42.016;21.454;2023-02-02T07:10:04;98645.38;;;1.52;69.62
62789;BME280;66401;42.016;21.454;2023-02-02T07:12:30;98630.63;;;1.65;69.34
62789;BME280;66401;42.016;21.454;2023-02-02T07:14:55;98645.13;;;1.96;68.19
62789;BME280;66401;42.016;21.454;2023-02-02T07:17:21;98632.94;;;1.98;68.55
62789;BME280;66401;42.016;21.454;2023-02-02T07:19:46;98648.00;;;1.82;68.58
62789;BME280;66401;42.016;21.454;2023-02-02T07:22:12;98635.91;;;1.94;66.92
62789;BME280;66401;42.016;21.454;2023-02-02T07:24:38;98637.06;;;2.11;67.90
62789;BME280;66401;42.016;21.454;2023-02-02T07:27:04;98637.66;;;2.24;67.55
62789;BME280;66401;42.016;21.454;2023-02-02T07:29:30;98654.84;;;2.64;66.78
62789;BME280;66401;42.016;21.454;2023-02-02T07:31:55;98659.75;;;2.96;65.57
62789;BME280;66401;42.016;21.454;2023-02-02T07:34:21;98639.84;;;3.07;65.19
62789;BME280;66401;42.016;21.454;2023-02-02T07:36:46;98650.81;;;2.90;65.78
62789;BME280;66401;42.016;21.454;2023-02-02T07:39:12;98654.63;;;3.25;65.84
62789;BME280;66401;42.016;21.454;2023-02-02T07:41:37;98653.50;;;3.56;63.72
62789;BME280;66401;42.016;21.454;2023-02-02T07:44:04;98651.06;;;4.11;61.88
62789;BME280;66401;42.016;21.454;2023-02-02T07:46:30;98651.28;;;5.36;58.10
62789;BME280;66401;42.016;21.454;2023-02-02T07:48:56;98635.03;;;6.55;53.42
62789;BME280;66401;42.016;21.454;2023-02-02T07:51:22;98627.81;;;7.97;48.73
62789;BME280;66401;42.016;21.454;2023-02-02T07:53:50;98630.53;;;8.91;46.20
62789;BME280;66401;42.016;21.454;2023-02-02T07:56:21;98635.63;;;10.71;41.72
62789;BME280;66401;42.016;21.454;2023-02-02T07:58:47;98627.81;;;11.56;39.00
62789;BME280;66401;42.016;21.454;2023-02-02T08:01:14;98619.25;;;11.62;39.42
62789;BME280;66401;42.016;21.454;2023-02-02T08:03:41;98610.66;;;12.99;36.70
62789;BME280;66401;42.016;21.454;2023-02-02T08:06:26;98638.88;;;13.30;35.26
62789;BME280;66401;42.016;21.454;2023-02-02T08:08:56;98634.97;;;11.75;37.52
62789;BME280;66401;42.016;21.454;2023-02-02T08:11:24;98624.34;;;12.05;36.79
62789;BME280;66401;42.016;21.454;2023-02-02T08:13:52;98629.66;;;13.67;34.12
62789;BME280;66401;42.016;21.454;2023-02-02T08:16:18;98634.44;;;13.17;35.25
62789;BME280;66401;42.016;21.454;2023-02-02T08:18:44;98635.97;;;14.88;31.76
62789;BME280;66401;42.016;21.454;2023-02-02T08:21:11;98636.59;;;15.47;31.59
62789;BME280;66401;42.016;21.454;2023-02-02T08:23:38;98638.34;;;15.85;30.57
62789;BME280;66401;42.016;21.454;2023-02-02T08:26:12;98644.50;;;17.42;28.27
62789;BME280;66401;42.016;21.454;2023-02-02T08:28:40;98649.28;;;15.50;31.07
62789;BME280;66401;42.016;21.454;2023-02-02T08:31:12;98651.16;;;15.74;30.20
62789;BME280;66401;42.016;21.454;2023-02-02T08:33:38;98642.41;;;15.24;30.89
62789;BME280;66401;42.016;21.454;2023-02-02T08:36:04;98639.53;;;17.22;28.92
62789;BME280;66401;42.016;21.454;2023-02-02T08:38:30;98641.59;;;17.20;29.29
62789;BME280;66401;42.016;21.454;2023-02-02T08:40:55;98644.97;;;17.51;28.51
62789;BME280;66401;42.016;21.454;2023-02-02T08:43:21;98632.69;;;19.52;25.64
62789;BME280;66401;42.016;21.454;2023-02-02T08:45:49;98632.63;;;20.41;23.36
62789;BME280;66401;42.016;21.454;2023-02-02T08:48:15;98622.72;;;15.90;28.43
62789;BME280;66401;42.016;21.454;2023-02-02T08:50:41;98619.53;;;16.24;30.23
62789;BME280;66401;42.016;21.454;2023-02-02T08:53:07;98619.38;;;18.56;26.24
62789;BME280;66401;42.016;21.454;2023-02-02T08:55:32;98606.91;;;16.15;28.51
62789;BME280;66401;42.016;21.454;2023-02-02T08:57:58;98614.28;;;17.33;27.91
62789;BME280;66401;42.016;21.454;2023-02-02T09:00:23;98616.72;;;15.64;28.61
62789;BME280;66401;42.016;21.454;2023-02-02T09:02:49;98606.66;;;17.90;27.59
62789;BME280;66401;42.016;21.454;2023-02-02T09:05:15;98618.16;;;15.54;30.65
62789;BME280;66401;42.016;21.454;2023-02-02T09:07:41;98607.88;;;19.53;25.18
62789;BME280;66401;42.016;21.454;2023-02-02T09:10:07;98623.53;;;21.62;21.91
62789;BME280;66401;42.016;21.454;2023-02-02T09:12:33;98608.19;;;20.51;23.21
62789;BME280;66401;42.016;21.454;2023-02-02T09:14:58;98617.34;;;20.43;23.72
62789;BME280;66401;42.016;21.454;2023-02-02T09:17:23;98610.09;;;20.82;22.82
62789;BME280;66401;42.016;21.454;2023-02-02T09:19:49;98614.56;;;22.78;20.24
62789;BME280;66401;42.016;21.454;2023-02-02T09:22:14;98613.69;;;21.25;21.21
62789;BME280;66401;42.016;21.454;2023-02-02T09:24:40;98605.56;;;23.91;19.63
62789;BME280;66401;42.016;21.454;2023-02-02T09:27:05;98603.47;;;23.06;19.92
62789;BME280;66401;42.016;21.454;2023-02-02T09:29:31;98605.69;;;19.84;22.73
62789;BME280;66401;42.016;21.454;2023-02-02T09:31:56;98612.91;;;22.62;20.76
62789;BME280;66401;42.016;21.454;2023-02-02T09:34:22;98597.25;;;20.25;22.76
62789;BME280;66401;42.016;21.454;2023-02-02T09:36:47;98594.88;;;24.01;18.61
62789;BME280;66401;42.016;21.454;2023-02-02T09:39:13;98593.03;;;23.96;18.01
62789;BME280;66401;42.016;21.454;2023-02-02T09:56:17;98575.94;;;28.09;15.37
62789;BME280;66401;42.016;21.454;2023-02-02T09:58:51;98570.63;;;28.59;14.84
62789;BME280;66401;42.016;21.454;2023-02-02T10:01:26;98562.16;;;24.60;17.66
62789;BME280;66401;42.016;21.454;2023-02-02T10:04:06;98557.66;;;25.00;17.34
62789;BME280;66401;42.016;21.454;2023-02-02T10:06:43;98553.16;;;25.87;16.73
62789;BME280;66401;42.016;21.454;2023-02-02T10:11:44;98542.94;;;26.37;15.42
62789;BME280;66401;42.016;21.454;2023-02-02T10:14:19;98537.06;;;27.98;14.93
62789;BME280;66401;42.016;21.454;2023-02-02T10:16:48;98530.78;;;25.30;16.86
62789;BME280;66401;42.016;21.454;2023-02-02T10:19:16;98525.19;;;27.17;15.85
62789;BME280;66401;42.016;21.454;2023-02-02T10:21:50;98517.94;;;25.32;18.06
62789;BME280;66401;42.016;21.454;2023-02-02T10:24:23;98516.06;;;27.78;14.93
62789;BME280;66401;42.016;21.454;2023-02-02T10:26:55;98503.13;;;28.21;14.98
62789;BME280;66401;42.016;21.454;2023-02-02T10:34:37;98508.72;;;23.97;17.02
62789;BME280;66401;42.016;21.454;2023-02-02T10:45:17;98493.56;;;29.41;14.25
62789;BME280;66401;42.016;21.454;2023-02-02T10:47:43;98490.13;;;26.86;15.00
62789;BME280;66401;42.016;21.454;2023-02-02T10:52:52;98475.97;;;29.17;13.76
62789;BME280;66401;42.016;21.454;2023-02-02T11:00:36;98474.72;;;29.23;13.64
62789;BME280;66401;42.016;21.454;2023-02-02T11:03:07;98471.00;;;29.42;13.70
62789;BME280;66401;42.016;21.454;2023-02-02T11:05:34;98469.63;;;29.13;12.92
62789;BME280;66401;42.016;21.454;2023-02-02T11:08:24;98469.00;;;26.14;15.77
62789;BME280;66401;42.016;21.454;2023-02-02T11:10:53;98463.28;;;25.59;17.72
62789;BME280;66401;42.016;21.454;2023-02-02T11:16:17;98456.69;;;30.29;11.78
62789;BME280;66401;42.016;21.454;2023-02-02T11:18:43;98427.75;;;29.34;13.37
62789;BME280;66401;42.016;21.454;2023-02-02T11:21:32;98444.78;;;29.87;12.54
62789;BME280;66401;42.016;21.454;2023-02-02T11:27:00;98428.94;;;26.51;14.66
62789;BME280;66401;42.016;21.454;2023-02-02T11:29:33;98428.97;;;26.84;14.88
62789;BME280;66401;42.016;21.454;2023-02-02T11:35:16;98414.91;;;26.92;14.68
62789;BME280;66401;42.016;21.454;2023-02-02T11:38:14;98410.75;;;27.96;14.67
62789;BME280;66401;42.016;21.454;2023-02-02T11:40:44;98394.84;;;25.25;16.23
62789;BME280;66401;42.016;21.454;2023-02-02T11:43:20;98391.25;;;23.75;16.84
62789;BME280;66401;42.016;21.454;2023-02-02T11:46:00;98367.38;;;23.54;17.65
62789;BME280;66401;42.016;21.454;2023-02-02T11:48:33;98374.13;;;26.21;15.14
62789;BME280;66401;42.016;21.454;2023-02-02T11:51:01;98368.84;;;26.35;14.41
62789;BME280;66401;42.016;21.454;2023-02-02T11:53:34;98372.63;;;25.11;15.70
62789;BME280;66401;42.016;21.454;2023-02-02T11:56:05;98354.69;;;24.35;16.24
62789;BME280;66401;42.016;21.454;2023-02-02T11:58:57;98351.38;;;24.14;16.33
62789;BME280;66401;42.016;21.454;2023-02-02T12:03:58;98344.03;;;25.17;14.80
62789;BME280;66401;42.016;21.454;2023-02-02T12:08:58;98328.19;;;26.85;14.53
62789;BME280;66401;42.016;21.454;2023-02-02T12:22:43;98310.09;;;26.35;14.80
62789;BME280;66401;42.016;21.454;2023-02-02T12:28:08;98307.25;;;26.13;15.02
62789;BME280;66401;42.016;21.454;2023-02-02T12:30:48;98298.84;;;22.66;17.50
62789;BME280;66401;42.016;21.454;2023-02-02T12:36:20;98287.91;;;22.83;18.07
62789;BME280;66401;42.016;21.454;2023-02-02T12:39:07;98282.66;;;21.61;19.44
62789;BME280;66401;42.016;21.454;2023-02-02T12:51:28;98283.25;;;22.04;19.87
62789;BME280;66401;42.016;21.454;2023-02-02T12:56:07;98273.28;;;23.01;18.75
62789;BME280;66401;42.016;21.454;2023-02-02T12:59:35;98273.69;;;21.92;20.37
62789;BME280;66401;42.016;21.454;2023-02-02T13:07:41;98273.94;;;20.88;20.84
62789;BME280;66401;42.016;21.454;2023-02-02T13:10:13;98282.00;;;20.61;21.17
62789;BME280;66401;42.016;21.454;2023-02-02T13:12:56;98277.69;;;20.49;21.63
62789;BME280;66401;42.016;21.454;2023-02-02T13:15:51;98272.56;;;20.38;21.50
62789;BME280;66401;42.016;21.454;2023-02-02T13:18:26;98263.56;;;20.81;21.43
62789;BME280;66401;42.016;21.454;2023-02-02T13:21:05;98273.66;;;19.78;23.22
62789;BME280;66401;42.016;21.454;2023-02-02T13:23:42;98264.19;;;18.84;24.09
62789;BME280;66401;42.016;21.454;2023-02-02T13:26:31;98260.97;;;18.43;24.40
62789;BME280;66401;42.016;21.454;2023-02-02T13:36:40;98264.88;;;17.45;24.69
62789;BME280;66401;42.016;21.454;2023-02-02T13:39:32;98270.50;;;17.49;26.15
62789;BME280;66401;42.016;21.454;2023-02-02T13:41:59;98272.16;;;16.86;25.82
62789;BME280;66401;42.016;21.454;2023-02-02T13:44:42;98276.72;;;16.67;27.53
62789;BME280;66401;42.016;21.454;2023-02-02T13:47:37;98270.66;;;16.08;27.06
62789;BME280;66401;42.016;21.454;2023-02-02T13:50:10;98251.69;;;15.83;28.07
62789;BME280;66401;42.016;21.454;2023-02-02T13:55:45;98243.50;;;15.31;27.99
62789;BME280;66401;42.016;21.454;2023-02-02T13:58:33;98238.69;;;15.28;28.77
62789;BME280;66401;42.016;21.454;2023-02-02T14:01:05;98238.44;;;15.17;29.66
62789;BME280;66401;42.016;21.454;2023-02-02T14:03:37;98244.81;;;15.22;31.14
62789;BME280;66401;42.016;21.454;2023-02-02T14:06:11;98241.53;;;14.96;32.05
62789;BME280;66401;42.016;21.454;2023-02-02T14:08:44;98233.78;;;15.01;31.14
62789;BME280;66401;42.016;21.454;2023-02-02T14:11:23;98235.25;;;14.79;30.17
62789;BME280;66401;42.016;21.454;2023-02-02T14:13:57;98241.13;;;14.56;32.77
62789;BME280;66401;42.016;21.454;2023-02-02T14:16:46;98245.16;;;14.33;32.72
62789;BME280;66401;42.016;21.454;2023-02-02T14:34:44;98233.28;;;13.11;32.62
62789;BME280;66401;42.016;21.454;2023-02-02T14:42:45;98219.38;;;12.79;37.41
62789;BME280;66401;42.016;21.454;2023-02-02T14:45:32;98218.00;;;12.70;37.62
62789;BME280;66401;42.016;21.454;2023-02-02T14:48:09;98214.13;;;12.79;37.20
62789;BME280;66401;42.016;21.454;2023-02-02T14:56:02;98232.00;;;12.82;36.09
62789;BME280;66401;42.016;21.454;2023-02-02T14:58:32;98226.25;;;12.67;37.18
62789;BME280;66401;42.016;21.454;2023-02-02T15:06:36;98218.72;;;12.26;38.38
62789;BME280;66401;42.016;21.454;2023-02-02T15:20:25;98209.91;;;11.81;37.66
62789;BME280;66401;42.016;21.454;2023-02-02T15:25:45;98208.06;;;11.61;35.74
62789;BME280;66401;42.016;21.454;2023-02-02T15:30:41;98208.25;;;11.66;32.95
62789;BME280;66401;42.016;21.454;2023-02-02T15:33:44;98212.66;;;11.59;34.35
62789;BME280;66401;42.016;21.454;2023-02-02T15:36:17;98206.63;;;11.39;34.84
62789;BME280;66401;42.016;21.454;2023-02-02T15:38:47;98198.13;;;11.17;35.90
62789;BME280;66401;42.016;21.454;2023-02-02T15:41:22;98215.38;;;11.18;35.67
62789;BME280;66401;42.016;21.454;2023-02-02T15:43:49;98210.38;;;11.16;35.81
62789;BME280;66401;42.016;21.454;2023-02-02T15:46:17;98215.59;;;11.10;36.26
62789;BME280;66401;42.016;21.454;2023-02-02T15:51:53;98218.50;;;10.87;37.68